WetterOnline ( https://www.wetteronline.de )

Wetter aktuell Bjuroklubb

Aktuelles Wetter: Bjuroklubb (43m)

6-stündlich | Neueste Meldungen
Ortszeit Temperatur Wetter
Sa, 24.10. 20:00 -0.1° C wolkenlos
Sa, 24.10. 14:00 3.5° C wolkenlos
Sa, 24.10. 8:00 -0.0° C wolkenlos
Sa, 24.10. 2:00 0.3° C wolkenlos
Fr, 23.10. 20:00 0.9° C wolkenlos
Fr, 23.10. 14:00 1.6° C wolkenlos
Fr, 23.10. 8:00 -2.2° C wolkenlos
Fr, 23.10. 2:00 -0.5° C bedeckt
Ortszeit Temperatur Wetter
So, 25.10. 1:00 -1.5° C wolkenlos
So, 25.10. 0:00 -0.8° C wolkenlos
Sa, 24.10. 23:00 -0.9° C wolkenlos
Sa, 24.10. 22:00 -0.9° C wolkenlos
Sa, 24.10. 21:00 -0.4° C wolkenlos
Sa, 24.10. 20:00 -0.1° C wolkenlos
Ortszeit Relative Feuchte Sichtweite
Sa, 24.10. 20:00 91% 50 km
Sa, 24.10. 14:00 70% 50 km
Sa, 24.10. 8:00 84% 50 km
Sa, 24.10. 2:00 90% 50 km
Fr, 23.10. 20:00 89% 50 km
Fr, 23.10. 14:00 82% 50 km
Fr, 23.10. 8:00 92% 50 km
Fr, 23.10. 2:00 99% 40 km
Ortszeit Relative Feuchte Sichtweite
So, 25.10. 1:00 94% 50 km
So, 25.10. 0:00 91% 50 km
Sa, 24.10. 23:00 93% 50 km
Sa, 24.10. 22:00 93% 50 km
Sa, 24.10. 21:00 92% 50 km
Sa, 24.10. 20:00 91% 50 km
Ortszeit Niederschlagsmenge Niederschlagsart
Sa, 24.10. 20:00 0.0 l/m2 in 12 Std. -
Sa, 24.10. 14:00 0.0 l/m2 in 1 Std. -
Sa, 24.10. 8:00 0.0 l/m2 in 12 Std. -
Sa, 24.10. 2:00 0.0 l/m2 in 1 Std. -
Fr, 23.10. 20:00 0.0 l/m2 in 12 Std. -
Fr, 23.10. 14:00 0.0 l/m2 in 1 Std. -
Fr, 23.10. 8:00 0.1 l/m2 in 12 Std. -
Fr, 23.10. 2:00 0.0 l/m2 in 1 Std. Schneeschauer
Ortszeit Niederschlagsmenge Niederschlagsart
So, 25.10. 1:00 0.0 l/m2 in 1 Std. -
So, 25.10. 0:00 0.0 l/m2 in 1 Std. -
Sa, 24.10. 23:00 0.0 l/m2 in 1 Std. -
Sa, 24.10. 22:00 0.0 l/m2 in 1 Std. -
Sa, 24.10. 21:00 0.0 l/m2 in 1 Std. -
Sa, 24.10. 20:00 0.0 l/m2 in 1 Std. -
Ortszeit Stärke Spitze Richtung
km/h Bft. km/h Grad Sektor
Sa, 24.10. 20:00 14 3 - 270° W
Sa, 24.10. 14:00 18 3 25 270° W
Sa, 24.10. 8:00 32 5 40 300° NW
Sa, 24.10. 2:00 32 5 43 280° W
Fr, 23.10. 20:00 36 5 47 290° W
Fr, 23.10. 14:00 29 5 40 280° W
Fr, 23.10. 8:00 25 4 36 310° NW
Fr, 23.10. 2:00 25 4 36 330° NW
Ortszeit Stärke Spitze Richtung
km/h Bft. km/h Grad Sektor
So, 25.10. 1:00 11 2 14 290° W
So, 25.10. 0:00 11 2 15 280° W
Sa, 24.10. 23:00 11 2 18 300° NW
Sa, 24.10. 22:00 13 3 17 280° W
Sa, 24.10. 21:00 11 2 18 250° W
Sa, 24.10. 20:00 14 3 22 270° W
Ortszeit Untergrenze Bedeckung Gattung
total tief tief mittel hoch
Sa, 24.10. 20:00 - 0/8 0/8 - - -
Sa, 24.10. 14:00 - 0/8 0/8 - - -
Sa, 24.10. 8:00 - 0/8 0/8 - - -
Sa, 24.10. 2:00 - 0/8 0/8 - - -
Fr, 23.10. 20:00 - 0/8 0/8 - - -
Fr, 23.10. 14:00 - 0/8 0/8 - - -
Fr, 23.10. 8:00 - 0/8 0/8 - - -
Fr, 23.10. 2:00 210 m 8/8 8/8 - - -
Ortszeit Bedeckungsgrad in Achtel und Wolkenuntergrenze
So, 25.10. 1:00 keine Wolken
So, 25.10. 0:00 keine Wolken
Sa, 24.10. 23:00 keine Wolken
Sa, 24.10. 22:00 keine Wolken
Sa, 24.10. 21:00 keine Wolken
Sa, 24.10. 20:00 keine Wolken
Ortszeit Luftdruck NN (hPa) Tendenz (hPa in 3 Std.)
Sa, 24.10. 20:00 1003 + 1,1
Sa, 24.10. 14:00 1001 + 1,0
Sa, 24.10. 8:00 999 + 0,9
Sa, 24.10. 2:00 997 + 0,2
Fr, 23.10. 20:00 996 + 0,3
Fr, 23.10. 14:00 996 + 0,1
Fr, 23.10. 8:00 996 - 0,2
Fr, 23.10. 2:00 995 - 0,5
Ortszeit Luftdruck NN (hPa) Tendenz (hPa in 3 Std.)
So, 25.10. 1:00 1005 + 0,5
So, 25.10. 0:00 1004 + 0,5
Sa, 24.10. 23:00 1004 + 0,5
Sa, 24.10. 22:00 1004 + 1,7
Sa, 24.10. 21:00 1004 + 1,4
Sa, 24.10. 20:00 1003 + 1,1
Ortszeit Schneehöhe (cm)
Sa, 24.10. 20:00 -
Sa, 24.10. 14:00 -
Sa, 24.10. 8:00 -
Sa, 24.10. 2:00 -
Fr, 23.10. 20:00 -
Fr, 23.10. 14:00 -
Fr, 23.10. 8:00 -
Fr, 23.10. 2:00 -
Ortszeit Schneehöhe (cm)
So, 25.10. 1:00 -
So, 25.10. 0:00 -
Sa, 24.10. 23:00 -
Sa, 24.10. 22:00 -
Sa, 24.10. 21:00 -
Sa, 24.10. 20:00 -
Link zu dieser Seite / Seite empfehlen

Das Wetter in ...